createdAt,value
2017-09-20T00:00:31.416Z,98396.31
2017-09-20T00:02:57.641Z,98404.16
2017-09-20T00:05:23.867Z,98407.33
2017-09-20T00:07:50.092Z,98398.36
2017-09-20T00:10:16.320Z,98408.27
2017-09-20T00:12:42.560Z,98413.71
2017-09-20T00:15:08.800Z,98416.16
2017-09-20T00:17:35.024Z,98414.14
2017-09-20T00:20:01.255Z,98414.42
2017-09-20T00:22:27.497Z,98417.38
2017-09-20T00:24:53.713Z,98416.52
2017-09-20T00:27:19.946Z,98414.66
2017-09-20T00:29:46.195Z,98407.70
2017-09-20T00:32:12.414Z,98406.72
2017-09-20T00:34:38.617Z,98406.40
2017-09-20T00:37:04.782Z,98405.41
2017-09-20T00:39:30.994Z,98409.27
2017-09-20T00:41:57.211Z,98415.18
2017-09-20T00:44:23.446Z,98422.95
2017-09-20T00:46:49.676Z,98422.39
2017-09-20T00:49:15.909Z,98423.42
2017-09-20T00:51:42.142Z,98422.83
2017-09-20T00:54:08.361Z,98413.47
2017-09-20T00:56:34.508Z,98410.80
2017-09-20T00:59:00.725Z,98415.61
2017-09-20T01:01:26.963Z,98415.54
2017-09-20T01:03:53.185Z,98414.31
2017-09-20T01:06:19.424Z,98421.83
2017-09-20T01:08:45.645Z,98424.86
2017-09-20T01:11:11.889Z,98425.82
2017-09-20T01:13:38.106Z,98430.33
2017-09-20T01:16:04.332Z,98425.00
2017-09-20T01:18:30.562Z,98426.44
2017-09-20T01:20:56.795Z,98440.80
2017-09-20T01:23:23.040Z,98440.59
2017-09-20T01:25:49.265Z,98441.52
2017-09-20T01:28:15.554Z,98435.56
2017-09-20T01:30:41.758Z,98440.41
2017-09-20T01:33:07.941Z,98439.92
2017-09-20T01:35:34.185Z,98434.97
2017-09-20T01:38:00.404Z,98437.31
2017-09-20T01:40:26.621Z,98443.64
2017-09-20T01:42:52.860Z,98445.94
2017-09-20T01:45:19.007Z,98453.82
2017-09-20T01:47:45.210Z,98454.66
2017-09-20T01:50:11.446Z,98457.94
2017-09-20T01:52:37.679Z,98469.76
2017-09-20T01:55:03.904Z,98472.51
2017-09-20T01:57:32.022Z,98480.81
2017-09-20T01:59:58.197Z,98480.41
2017-09-20T02:02:24.433Z,98474.17
2017-09-20T02:04:50.667Z,98473.25
2017-09-20T02:07:16.890Z,98469.90
2017-09-20T02:09:43.106Z,98477.80
2017-09-20T02:12:09.359Z,98478.63
2017-09-20T02:14:35.605Z,98474.10
2017-09-20T02:17:01.817Z,98489.62
2017-09-20T02:19:28.039Z,98488.27
2017-09-20T02:21:54.286Z,98491.57
2017-09-20T02:24:20.514Z,98492.08
2017-09-20T02:26:46.721Z,98492.39
2017-09-20T02:29:12.965Z,98491.99
2017-09-20T02:31:39.197Z,98495.52
2017-09-20T02:34:05.426Z,98501.75
2017-09-20T02:36:31.668Z,98506.87
2017-09-20T02:38:57.830Z,98499.47
2017-09-20T02:41:24.020Z,98503.41
2017-09-20T02:43:50.247Z,98504.44
2017-09-20T02:46:16.464Z,98502.14
2017-09-20T02:48:42.708Z,98503.55
2017-09-20T02:51:08.912Z,98506.61
2017-09-20T02:53:35.166Z,98511.84
2017-09-20T02:56:01.378Z,98510.39
2017-09-20T02:58:27.629Z,98504.27
2017-09-20T03:00:53.834Z,98503.41
2017-09-20T03:03:19.993Z,98498.99
2017-09-20T03:05:46.223Z,98500.98
2017-09-20T03:08:12.440Z,98509.55
2017-09-20T03:10:38.670Z,98520.08
2017-09-20T03:13:04.901Z,98524.81
2017-09-20T03:15:31.122Z,98532.66
2017-09-20T03:17:57.358Z,98538.06
2017-09-20T03:20:23.591Z,98544.47
2017-09-20T03:22:49.812Z,98540.08
2017-09-20T03:25:16.053Z,98543.69
2017-09-20T03:27:42.263Z,98544.42
2017-09-20T03:30:08.508Z,98551.00
2017-09-20T03:32:34.728Z,98570.31
2017-09-20T03:35:00.971Z,98571.80
2017-09-20T03:37:27.180Z,98566.42
2017-09-20T03:39:53.404Z,98551.17
2017-09-20T03:42:19.662Z,98542.86
2017-09-20T03:44:45.873Z,98549.34
2017-09-20T03:47:12.106Z,98538.61
2017-09-20T03:49:38.347Z,98516.30
2017-09-20T03:52:04.565Z,98520.59
2017-09-20T03:54:30.793Z,98541.41
2017-09-20T03:56:57.018Z,98557.64
2017-09-20T03:59:23.246Z,98571.02
2017-09-20T04:01:49.495Z,98574.31
2017-09-20T04:04:15.721Z,98578.64
2017-09-20T04:06:41.941Z,98564.66
2017-09-20T04:09:08.189Z,98564.52
2017-09-20T04:11:34.405Z,98555.81
2017-09-20T04:14:00.648Z,98546.72
2017-09-20T04:16:26.850Z,98564.80
2017-09-20T04:18:53.102Z,98583.00
2017-09-20T04:21:19.330Z,98572.81
2017-09-20T04:23:45.554Z,98569.92
2017-09-20T04:26:11.789Z,98565.13
2017-09-20T04:28:38.007Z,98556.22
2017-09-20T04:31:04.233Z,98557.17
2017-09-20T04:33:30.461Z,98553.05
2017-09-20T04:35:56.699Z,98543.98
2017-09-20T04:38:22.928Z,98536.72
2017-09-20T04:40:49.163Z,98536.70
2017-09-20T04:43:15.407Z,98536.49
2017-09-20T04:45:41.732Z,98549.11
2017-09-20T04:48:07.949Z,98546.47
2017-09-20T04:50:34.184Z,98543.51
2017-09-20T04:53:00.410Z,98545.16
2017-09-20T04:55:26.648Z,98546.41
2017-09-20T04:57:52.873Z,98547.14
2017-09-20T05:00:19.104Z,98539.95
2017-09-20T05:02:45.340Z,98535.98
2017-09-20T05:05:11.568Z,98532.30
2017-09-20T05:07:37.795Z,98539.39
2017-09-20T05:10:04.017Z,98534.03
2017-09-20T05:12:30.189Z,98529.23
2017-09-20T05:14:56.379Z,98520.05
2017-09-20T05:17:23.543Z,98517.71
2017-09-20T05:19:49.745Z,98515.33
2017-09-20T05:22:15.994Z,98535.05
2017-09-20T05:24:42.207Z,98538.48
2017-09-20T05:27:08.447Z,98547.50
2017-09-20T05:29:34.671Z,98546.23
2017-09-20T05:32:00.910Z,98540.11
2017-09-20T05:34:27.246Z,98533.92
2017-09-20T05:36:53.480Z,98526.80
2017-09-20T05:39:19.693Z,98532.59
2017-09-20T05:41:45.928Z,98527.30
2017-09-20T05:44:12.159Z,98524.97
2017-09-20T05:46:38.396Z,98521.37
2017-09-20T05:49:04.621Z,98521.97
2017-09-20T05:51:30.833Z,98518.66
2017-09-20T05:53:57.075Z,98515.13
2017-09-20T05:56:23.322Z,98517.05
2017-09-20T05:58:49.541Z,98515.66
2017-09-20T06:01:15.754Z,98513.47
2017-09-20T06:03:41.983Z,98510.50
2017-09-20T06:06:08.235Z,98516.11
2017-09-20T06:08:34.482Z,98519.23
2017-09-20T06:11:00.671Z,98507.20
2017-09-20T06:13:27.154Z,98506.34
2017-09-20T06:15:53.341Z,98495.87
2017-09-20T06:18:19.563Z,98491.75
2017-09-20T06:20:45.809Z,98494.21
2017-09-20T06:23:12.244Z,98490.42
2017-09-20T06:25:38.748Z,98490.46
2017-09-20T06:28:09.996Z,98487.13
2017-09-20T06:30:36.299Z,98481.55
2017-09-20T06:33:02.529Z,98474.94
2017-09-20T06:35:28.729Z,98466.37
2017-09-20T06:37:54.941Z,98464.50
2017-09-20T06:40:21.223Z,98461.48
2017-09-20T06:42:47.419Z,98458.94
2017-09-20T06:45:13.663Z,98458.41
2017-09-20T06:47:39.956Z,98471.03
2017-09-20T06:50:06.256Z,98466.95
2017-09-20T06:52:32.528Z,98461.19
2017-09-20T06:54:58.756Z,98458.95
2017-09-20T06:57:25.031Z,98457.16
2017-09-20T07:06:33.513Z,98437.81
2017-09-20T07:08:59.829Z,98441.73
2017-09-20T07:11:29.933Z,98438.09
2017-09-20T07:13:56.482Z,98438.95
2017-09-20T07:16:22.799Z,98437.81
2017-09-20T07:18:49.119Z,98431.48
2017-09-20T07:21:15.417Z,98428.52
2017-09-20T07:23:41.744Z,98423.68
2017-09-20T07:26:08.046Z,98422.79
2017-09-20T07:28:34.349Z,98427.41
2017-09-20T07:31:03.079Z,98422.23
2017-09-20T07:33:32.262Z,98413.20
2017-09-20T07:35:58.628Z,98411.62
2017-09-20T07:38:24.904Z,98407.59
2017-09-20T07:40:52.011Z,98404.22
2017-09-20T07:43:18.325Z,98399.67
2017-09-20T07:45:44.628Z,98389.81
2017-09-20T07:48:10.968Z,98388.47
2017-09-20T07:50:37.287Z,98381.03
2017-09-20T07:53:03.550Z,98384.66
2017-09-20T07:55:29.826Z,98386.78
2017-09-20T07:57:56.108Z,98377.48
2017-09-20T08:00:22.404Z,98381.28
2017-09-20T08:02:48.653Z,98378.19
2017-09-20T08:05:14.911Z,98377.68
2017-09-20T08:07:41.235Z,98367.75
2017-09-20T08:10:07.545Z,98371.08
2017-09-20T08:12:34.717Z,98370.93
2017-09-20T08:15:01.015Z,98366.65
2017-09-20T08:17:27.270Z,98364.53
2017-09-20T08:19:53.595Z,98359.95
2017-09-20T08:22:19.850Z,98353.41
2017-09-20T08:24:46.123Z,98354.64
2017-09-20T08:27:12.485Z,98343.18
2017-09-20T08:29:38.749Z,98338.00
2017-09-20T08:32:06.840Z,98331.55
2017-09-20T08:34:33.151Z,98329.54
2017-09-20T08:36:59.428Z,98321.77
2017-09-20T08:39:25.712Z,98325.59
2017-09-20T08:41:52.978Z,98314.02
2017-09-20T08:44:19.226Z,98310.28
2017-09-20T08:46:45.496Z,98299.42
2017-09-20T08:49:11.816Z,98297.70
2017-09-20T08:51:38.094Z,98283.89
2017-09-20T08:54:04.463Z,98290.36
2017-09-20T08:56:30.663Z,98278.42
2017-09-20T08:58:58.119Z,98281.42
2017-09-20T09:01:24.437Z,98282.17
2017-09-20T09:03:50.720Z,98270.80
2017-09-20T09:06:17.042Z,98266.89
2017-09-20T09:08:43.292Z,98266.30
2017-09-20T09:11:09.571Z,98271.44
2017-09-20T09:13:35.903Z,98266.09
2017-09-20T09:16:02.221Z,98262.63
2017-09-20T09:18:28.527Z,98261.66
2017-09-20T09:20:54.806Z,98254.13
2017-09-20T09:23:21.054Z,98256.41
2017-09-20T09:25:48.021Z,98248.83
2017-09-20T09:28:14.347Z,98246.83
2017-09-20T09:30:40.676Z,98240.75
2017-09-20T09:33:07.035Z,98242.14
2017-09-20T09:35:33.653Z,98235.92
2017-09-20T09:38:00.014Z,98236.50
2017-09-20T09:40:26.218Z,98227.34
2017-09-20T09:42:53.464Z,98230.45
2017-09-20T09:45:21.425Z,98227.30
2017-09-20T09:47:47.844Z,98220.88
2017-09-20T09:50:14.199Z,98218.08
2017-09-20T09:52:40.958Z,98209.30
2017-09-20T09:55:07.792Z,98212.55
2017-09-20T09:57:34.029Z,98207.02
2017-09-20T10:00:01.198Z,98208.56
2017-09-20T10:02:27.509Z,98201.56
2017-09-20T10:04:53.846Z,98199.56
2017-09-20T10:07:21.009Z,98198.58
2017-09-20T10:09:47.302Z,98187.11
2017-09-20T10:12:13.733Z,98182.30
2017-09-20T10:14:40.140Z,98170.97
2017-09-20T10:17:06.398Z,98161.06
2017-09-20T10:19:32.611Z,98163.21
2017-09-20T10:21:58.953Z,98153.20
2017-09-20T10:24:25.191Z,98151.80
2017-09-20T10:26:51.544Z,98148.48
2017-09-20T10:29:17.866Z,98145.00
2017-09-20T10:31:44.092Z,98145.30
2017-09-20T10:34:10.408Z,98142.64
2017-09-20T10:36:37.261Z,98142.22
2017-09-20T10:39:03.502Z,98137.98
2017-09-20T10:41:29.869Z,98135.51
2017-09-20T10:43:56.355Z,98133.16
2017-09-20T10:46:22.589Z,98124.45
2017-09-20T10:48:48.818Z,98119.97
2017-09-20T10:51:15.080Z,98117.65
2017-09-20T10:53:41.294Z,98120.77
2017-09-20T10:56:07.631Z,98119.73
2017-09-20T10:58:34.054Z,98121.94
2017-09-20T11:01:00.292Z,98108.90
2017-09-20T11:03:26.621Z,98098.98
2017-09-20T11:05:52.945Z,98092.66
2017-09-20T11:08:19.192Z,98096.59
2017-09-20T11:10:45.399Z,98086.52
2017-09-20T11:13:11.647Z,98085.64
2017-09-20T11:15:37.866Z,98080.14
2017-09-20T11:18:04.099Z,98081.38
2017-09-20T11:20:30.421Z,98079.16
2017-09-20T11:22:56.675Z,98063.89
2017-09-20T11:25:22.989Z,98060.83
2017-09-20T11:27:49.313Z,98059.45
2017-09-20T11:30:15.552Z,98062.27
2017-09-20T11:32:41.764Z,98060.88
2017-09-20T11:35:08.107Z,98057.95
2017-09-20T11:37:34.341Z,98051.30
2017-09-20T11:40:00.579Z,98057.32
2017-09-20T11:42:26.804Z,98047.46
2017-09-20T11:44:53.127Z,98047.35
2017-09-20T11:47:19.360Z,98042.41
2017-09-20T11:49:45.582Z,98044.86
2017-09-20T11:59:19.605Z,98035.81
2017-09-20T12:01:45.823Z,98031.84
2017-09-20T12:04:12.207Z,98031.38
2017-09-20T12:06:43.739Z,98021.92
2017-09-20T12:09:10.343Z,98024.20
2017-09-20T12:11:36.645Z,98014.86
2017-09-20T12:14:03.016Z,98021.00
2017-09-20T12:16:29.247Z,98009.64
2017-09-20T12:18:57.722Z,98009.38
2017-09-20T12:21:24.207Z,98012.37
2017-09-20T12:23:50.826Z,97993.97
2017-09-20T12:26:17.674Z,97994.29
2017-09-20T12:28:44.993Z,97973.77
2017-09-20T12:47:23.752Z,97962.03
2017-09-20T12:49:51.221Z,97962.69
2017-09-20T12:52:18.312Z,97961.34
2017-09-20T12:54:48.691Z,97958.63
2017-09-20T12:57:23.011Z,97960.60
2017-09-20T12:59:50.411Z,97959.73
2017-09-20T13:02:16.750Z,97948.25
2017-09-20T13:04:43.539Z,97937.96
2017-09-20T13:07:11.070Z,97906.02
2017-09-20T13:09:41.207Z,97947.59
2017-09-20T13:12:09.361Z,97937.91
2017-09-20T13:14:43.972Z,97926.84
2017-09-20T13:17:10.634Z,97938.20
2017-09-20T13:19:38.438Z,97933.85
2017-09-20T13:22:05.800Z,97924.77
2017-09-20T13:31:16.028Z,97917.84
2017-09-20T13:36:14.213Z,97878.70
2017-09-20T13:38:40.640Z,97899.25
2017-09-20T13:41:07.004Z,97894.69
2017-09-20T13:43:33.470Z,97897.84
2017-09-20T13:45:59.850Z,97902.42
2017-09-20T13:48:26.155Z,97903.77
2017-09-20T13:50:52.492Z,97907.45
2017-09-20T13:53:18.835Z,97900.97
2017-09-20T13:55:45.163Z,97895.75
2017-09-20T13:58:11.726Z,97895.84
2017-09-20T14:00:38.134Z,97895.17
2017-09-20T14:03:04.456Z,97893.36
2017-09-20T14:05:30.666Z,97891.70
2017-09-20T14:07:56.894Z,97887.84
2017-09-20T14:10:23.209Z,97885.06
2017-09-20T14:12:49.546Z,97879.29
2017-09-20T14:15:15.871Z,97882.41
2017-09-20T14:17:42.114Z,97877.75
2017-09-20T14:20:08.336Z,97874.68
2017-09-20T14:22:34.502Z,97878.44
2017-09-20T14:25:00.800Z,97880.81
2017-09-20T14:27:27.032Z,97872.08
2017-09-20T14:29:53.257Z,97865.74
2017-09-20T14:32:19.505Z,97866.37
2017-09-20T14:34:48.970Z,97869.23
2017-09-20T14:37:15.495Z,97863.36
2017-09-20T14:39:42.172Z,97862.38
2017-09-20T14:42:08.518Z,97857.13
2017-09-20T14:44:34.823Z,97857.16
2017-09-20T14:47:01.069Z,97855.20
2017-09-20T14:49:27.304Z,97859.87
2017-09-20T14:51:53.496Z,97865.52
2017-09-20T14:54:19.859Z,97868.55
2017-09-20T14:56:46.896Z,97863.48
2017-09-20T14:59:13.133Z,97862.86
2017-09-20T15:01:39.385Z,97859.29
2017-09-20T15:04:05.632Z,97865.72
2017-09-20T15:06:32.048Z,97860.98
2017-09-20T15:08:58.361Z,97865.17
2017-09-20T15:11:24.593Z,97864.24
2017-09-20T15:13:50.756Z,97863.52
2017-09-20T15:16:17.061Z,97869.20
2017-09-20T15:18:43.262Z,97868.38
2017-09-20T15:21:09.515Z,97875.95
2017-09-20T15:23:35.756Z,97876.66
2017-09-20T15:26:02.186Z,97885.72
2017-09-20T15:28:28.416Z,97888.95
2017-09-20T15:30:54.634Z,97890.14
2017-09-20T15:33:20.964Z,97897.63
2017-09-20T15:35:47.188Z,97899.76
2017-09-20T15:38:13.460Z,97909.53
2017-09-20T15:40:39.719Z,97906.58
2017-09-20T15:43:05.938Z,97911.79
2017-09-20T15:45:32.094Z,97906.71
2017-09-20T15:47:58.398Z,97913.14
2017-09-20T15:50:24.609Z,97927.49
2017-09-20T15:52:51.008Z,97930.30
2017-09-20T15:55:17.398Z,97936.31
2017-09-20T15:57:43.620Z,97939.25
2017-09-20T16:00:09.843Z,97941.89
2017-09-20T16:02:36.143Z,97951.46
2017-09-20T16:05:02.351Z,97962.22
2017-09-20T16:07:28.655Z,97971.16
2017-09-20T16:09:54.827Z,97973.37
2017-09-20T16:12:21.048Z,97970.10
2017-09-20T16:14:47.264Z,97977.56
2017-09-20T16:17:13.513Z,97975.84
2017-09-20T16:19:39.733Z,97991.61
2017-09-20T16:22:05.946Z,97994.95
2017-09-20T16:24:32.133Z,97994.31
2017-09-20T16:26:58.333Z,98001.38
2017-09-20T16:29:24.517Z,98013.53
2017-09-20T16:31:50.844Z,98022.56
2017-09-20T16:34:17.068Z,98025.84
2017-09-20T16:36:43.310Z,98040.23
2017-09-20T16:39:09.577Z,98052.59
2017-09-20T16:41:35.724Z,98064.65
2017-09-20T16:44:01.930Z,98086.69
2017-09-20T16:46:28.158Z,98087.59
2017-09-20T16:48:54.403Z,98104.02
2017-09-20T16:51:20.944Z,98118.98
2017-09-20T16:53:47.098Z,98132.38
2017-09-20T16:56:13.352Z,98144.33
2017-09-20T16:58:39.598Z,98184.03
2017-09-20T17:01:05.776Z,98182.13
2017-09-20T17:03:31.931Z,98206.25
2017-09-20T17:05:58.201Z,98231.37
2017-09-20T17:08:24.387Z,98244.25
2017-09-20T17:10:51.491Z,98253.11
2017-09-20T17:13:18.238Z,98273.95
2017-09-20T17:15:44.405Z,98301.44
2017-09-20T17:18:10.716Z,98308.89
2017-09-20T17:20:36.873Z,98321.23
2017-09-20T17:23:03.729Z,98330.52
2017-09-20T17:25:29.887Z,98328.86
2017-09-20T17:27:56.121Z,98354.72
2017-09-20T17:30:22.331Z,98359.33
2017-09-20T17:32:48.579Z,98364.41
2017-09-20T17:35:14.779Z,98371.86
2017-09-20T17:37:40.999Z,98381.16
2017-09-20T17:40:07.184Z,98379.33
2017-09-20T17:42:33.471Z,98386.11
2017-09-20T17:44:59.794Z,98399.27
2017-09-20T17:47:26.105Z,98400.77
2017-09-20T17:49:52.346Z,98407.63
2017-09-20T17:52:19.036Z,98419.82
2017-09-20T17:54:45.284Z,98422.11
2017-09-20T17:57:11.501Z,98436.98
2017-09-20T17:59:37.692Z,98443.58
2017-09-20T18:02:03.923Z,98449.51
2017-09-20T18:04:30.794Z,98458.06
2017-09-20T18:06:57.007Z,98472.02
2017-09-20T18:09:23.188Z,98477.70
2017-09-20T18:11:49.764Z,98495.02
2017-09-20T18:14:16.620Z,98514.30
2017-09-20T18:16:42.802Z,98525.59
2017-09-20T18:19:08.984Z,98533.06
2017-09-20T18:21:35.294Z,98537.40
2017-09-20T18:24:01.774Z,98532.44
2017-09-20T18:26:28.095Z,98542.25
2017-09-20T18:28:54.523Z,98549.22
2017-09-20T18:31:20.773Z,98560.91
2017-09-20T18:33:46.986Z,98571.28
2017-09-20T18:36:13.230Z,98560.52
2017-09-20T18:38:39.461Z,98565.97
2017-09-20T18:41:05.799Z,98574.92
2017-09-20T18:43:32.134Z,98577.53
2017-09-20T18:45:58.462Z,98589.20
2017-09-20T18:48:24.798Z,98591.64
2017-09-20T18:50:51.119Z,98591.39
2017-09-20T18:53:17.349Z,98594.38
2017-09-20T18:55:43.696Z,98602.69
2017-09-20T18:58:10.000Z,98605.11
2017-09-20T19:00:37.084Z,98622.20
2017-09-20T19:03:03.306Z,98627.03
2017-09-20T19:05:29.539Z,98617.41
2017-09-20T19:07:55.784Z,98623.00
2017-09-20T19:10:22.297Z,98637.73
2017-09-20T19:12:48.737Z,98642.66
2017-09-20T19:15:15.152Z,98656.22
2017-09-20T19:17:41.485Z,98661.78
2017-09-20T19:20:07.804Z,98664.67
2017-09-20T19:22:34.121Z,98674.70
2017-09-20T19:25:00.475Z,98672.97
2017-09-20T19:27:27.284Z,98661.36
2017-09-20T19:29:53.574Z,98666.89
2017-09-20T19:32:20.214Z,98662.59
2017-09-20T19:34:46.578Z,98656.42
2017-09-20T19:37:12.837Z,98661.98
2017-09-20T19:39:39.734Z,98662.92
2017-09-20T19:42:06.002Z,98664.22
2017-09-20T19:44:32.229Z,98664.75
2017-09-20T19:46:58.595Z,98656.90
2017-09-20T19:49:25.935Z,98658.75
2017-09-20T19:51:52.204Z,98658.40
2017-09-20T19:54:18.642Z,98660.80
2017-09-20T19:56:44.946Z,98676.38
2017-09-20T19:59:11.194Z,98682.59
2017-09-20T20:01:37.846Z,98683.73
2017-09-20T20:04:04.192Z,98681.35
2017-09-20T20:06:30.479Z,98688.47
2017-09-20T20:08:56.921Z,98694.41
2017-09-20T20:11:23.252Z,98694.82
2017-09-20T20:13:49.885Z,98698.75
2017-09-20T20:16:16.742Z,98699.39
2017-09-20T20:18:43.367Z,98694.34
2017-09-20T20:21:10.111Z,98694.95
2017-09-20T20:23:36.463Z,98700.84
2017-09-20T20:26:02.787Z,98697.72
2017-09-20T20:28:29.045Z,98700.06
2017-09-20T20:30:55.647Z,98704.87
2017-09-20T20:33:22.074Z,98698.83
2017-09-20T20:35:48.307Z,98694.34
2017-09-20T20:38:14.641Z,98676.72
2017-09-20T20:40:40.894Z,98682.55
2017-09-20T20:43:08.356Z,98677.63
2017-09-20T20:45:34.655Z,98682.33
2017-09-20T20:48:00.885Z,98689.30
2017-09-20T20:50:27.218Z,98691.13
2017-09-20T20:52:54.055Z,98689.41
2017-09-20T20:55:20.600Z,98689.41
2017-09-20T20:57:46.780Z,98697.27
2017-09-20T21:00:13.058Z,98700.16
2017-09-20T21:02:39.511Z,98698.25
2017-09-20T21:05:05.831Z,98704.55
2017-09-20T21:07:32.471Z,98709.41
2017-09-20T21:09:58.791Z,98708.22
2017-09-20T21:12:25.023Z,98706.97
2017-09-20T21:14:51.356Z,98699.33
2017-09-20T21:17:17.882Z,98694.44
2017-09-20T21:19:44.331Z,98685.91
2017-09-20T21:22:10.869Z,98676.06
2017-09-20T21:24:37.267Z,98685.28
2017-09-20T21:27:03.542Z,98687.02
2017-09-20T21:29:29.975Z,98692.42
2017-09-20T21:31:56.501Z,98685.75
2017-09-20T21:34:23.614Z,98686.95
2017-09-20T21:36:49.969Z,98691.06
2017-09-20T21:39:16.198Z,98690.13
2017-09-20T21:41:42.448Z,98684.81
2017-09-20T21:44:08.797Z,98680.73
2017-09-20T21:46:35.117Z,98671.84
2017-09-20T21:49:01.449Z,98663.01
2017-09-20T21:51:27.757Z,98667.63
2017-09-20T21:53:54.003Z,98685.95
2017-09-20T21:56:20.215Z,98689.74
2017-09-20T21:58:46.666Z,98691.25
2017-09-20T22:01:13.099Z,98684.95
2017-09-20T22:03:39.636Z,98681.34
2017-09-20T22:06:05.851Z,98679.06
2017-09-20T22:08:32.186Z,98695.05
2017-09-20T22:10:58.427Z,98711.79
2017-09-20T22:13:24.660Z,98714.67
2017-09-20T22:15:50.973Z,98723.11
2017-09-20T22:18:17.517Z,98723.75
2017-09-20T22:20:43.968Z,98723.58
2017-09-20T22:23:10.397Z,98715.87
2017-09-20T22:25:36.814Z,98720.64
2017-09-20T22:28:03.161Z,98729.54
2017-09-20T22:30:29.590Z,98736.02
2017-09-20T22:32:55.935Z,98720.30
2017-09-20T22:35:22.266Z,98732.58
2017-09-20T22:37:48.596Z,98734.77
2017-09-20T22:40:15.325Z,98739.09
2017-09-20T22:42:41.560Z,98736.79
2017-09-20T22:45:07.780Z,98731.94
2017-09-20T22:47:33.999Z,98733.00
2017-09-20T22:50:00.355Z,98722.13
2017-09-20T22:52:26.706Z,98718.95
2017-09-20T22:54:53.116Z,98728.36
2017-09-20T22:57:19.335Z,98749.19
2017-09-20T22:59:45.685Z,98739.16
2017-09-20T23:02:12.436Z,98728.48
2017-09-20T23:04:40.106Z,98722.20
2017-09-20T23:07:06.310Z,98727.56
2017-09-20T23:09:32.544Z,98718.19
2017-09-20T23:11:59.094Z,98708.23
2017-09-20T23:14:25.415Z,98692.67
2017-09-20T23:16:51.736Z,98697.19
2017-09-20T23:19:18.193Z,98697.00
2017-09-20T23:21:44.393Z,98697.43
2017-09-20T23:24:10.742Z,98700.08
2017-09-20T23:26:37.057Z,98717.81
2017-09-20T23:29:03.295Z,98718.16
2017-09-20T23:31:29.635Z,98728.55
2017-09-20T23:33:56.379Z,98732.85
2017-09-20T23:36:22.699Z,98730.56
2017-09-20T23:38:48.946Z,98738.88
2017-09-20T23:41:15.574Z,98735.03
2017-09-20T23:43:41.821Z,98736.16
2017-09-20T23:46:08.461Z,98730.47
2017-09-20T23:48:34.671Z,98730.77
2017-09-20T23:51:01.316Z,98728.80
2017-09-20T23:53:27.864Z,98720.27
2017-09-20T23:55:54.283Z,98706.50
2017-09-20T23:58:20.623Z,98702.73
